createdAt,value
2019-02-04T00:00:03.620Z,0.98
2019-02-04T00:01:03.603Z,0.96
2019-02-04T00:02:03.346Z,1.04
2019-02-04T00:03:03.577Z,0.97
2019-02-04T00:04:03.607Z,0.93
2019-02-04T00:05:03.535Z,0.94
2019-02-04T00:06:03.942Z,0.9
2019-02-04T00:07:03.495Z,0.86
2019-02-04T00:08:03.487Z,0.88
2019-02-04T00:09:03.464Z,0.83
2019-02-04T00:10:03.453Z,0.97
2019-02-04T00:11:04.174Z,0.88
2019-02-04T00:12:03.408Z,0.88
2019-02-04T00:13:03.517Z,0.88
2019-02-04T00:14:03.792Z,0.86
2019-02-04T00:15:03.355Z,0.87
2019-02-04T00:16:03.342Z,0.9
2019-02-04T00:17:03.326Z,0.84
2019-02-04T00:18:03.304Z,0.86
2019-02-04T00:19:03.286Z,0.83
2019-02-04T00:20:03.272Z,0.79
2019-02-04T00:21:03.271Z,0.83
2019-02-04T00:22:03.800Z,0.76
2019-02-04T00:23:03.221Z,0.76
2019-02-04T00:24:03.201Z,0.84
2019-02-04T00:25:03.202Z,0.78
2019-02-04T00:26:03.182Z,0.72
2019-02-04T00:27:03.150Z,0.75
2019-02-04T00:28:03.135Z,0.73
2019-02-04T00:29:03.106Z,0.65
2019-02-04T00:30:03.558Z,0.72
2019-02-04T00:31:05.012Z,0.72
2019-02-04T00:32:03.069Z,0.62
2019-02-04T00:33:03.043Z,0.62
2019-02-04T00:34:03.100Z,0.65
2019-02-04T00:35:03.036Z,0.65
2019-02-04T00:36:02.990Z,0.62
2019-02-04T00:37:02.989Z,0.55
2019-02-04T00:38:03.261Z,0.47
2019-02-04T00:39:05.040Z,0.46
2019-02-04T00:40:02.919Z,0.51
2019-02-04T00:41:02.905Z,0.47
2019-02-04T00:42:02.896Z,0.49
2019-02-04T00:43:02.861Z,0.44
2019-02-04T00:44:02.853Z,0.49
2019-02-04T00:45:02.911Z,0.47
2019-02-04T00:46:03.202Z,0.46
2019-02-04T00:47:02.793Z,0.46
2019-02-04T00:48:02.781Z,0.38
2019-02-04T00:49:02.757Z,0.41
2019-02-04T00:50:02.740Z,0.46
2019-02-04T00:51:02.479Z,0.41
2019-02-04T00:52:02.702Z,0.32
2019-02-04T00:53:02.903Z,0.33
2019-02-04T00:54:02.664Z,0.29
2019-02-04T00:55:02.679Z,0.29
2019-02-04T00:56:02.641Z,0.35
2019-02-04T00:57:02.613Z,0.32
2019-02-04T00:58:02.600Z,0.29
2019-02-04T00:59:02.573Z,0.29
2019-02-04T01:00:02.703Z,0.24
2019-02-04T01:01:03.082Z,0.28
2019-02-04T01:02:02.531Z,0.28
2019-02-04T01:03:02.272Z,0.24
2019-02-04T01:04:02.501Z,0.26
2019-02-04T01:05:02.675Z,0.23
2019-02-04T01:06:02.454Z,0.21
2019-02-04T01:07:02.457Z,0.17
2019-02-04T01:08:02.204Z,0.18
2019-02-04T01:09:02.954Z,0.15
2019-02-04T01:10:02.385Z,0.13
2019-02-04T01:11:02.369Z,0.15
2019-02-04T01:12:02.389Z,0.14
2019-02-04T01:13:02.410Z,0.14
2019-02-04T01:14:02.308Z,0.15
2019-02-04T01:15:02.292Z,0.13
2019-02-04T01:16:02.291Z,0.17
2019-02-04T01:17:08.473Z,0.11
2019-02-04T01:18:02.290Z,0.15
2019-02-04T01:19:02.229Z,0.08
2019-02-04T01:20:02.224Z,0.03
2019-02-04T01:21:02.190Z,0.1
2019-02-04T01:22:02.167Z,0.07
2019-02-04T01:23:02.151Z,0.03
2019-02-04T01:24:02.135Z,0.08
2019-02-04T01:25:02.734Z,0.04
2019-02-04T01:26:02.115Z,0.1
2019-02-04T01:27:02.087Z,0.04
2019-02-04T01:28:02.057Z,0.13
2019-02-04T01:29:02.041Z,0.1
2019-02-04T01:30:02.025Z,0.07
2019-02-04T01:31:02.013Z,0.03
2019-02-04T01:32:01.991Z,0.03
2019-02-04T01:33:02.703Z,0.04
2019-02-04T01:34:01.958Z,0.08
2019-02-04T01:35:02.041Z,0.07
2019-02-04T01:36:01.945Z,0.02
2019-02-04T01:37:01.894Z,0.04
2019-02-04T01:38:01.885Z,0.02
2019-02-04T01:39:01.864Z,0.1
2019-02-04T01:40:01.890Z,-0.04
2019-02-04T01:41:02.499Z,0
2019-02-04T01:42:01.806Z,-0.04
2019-02-04T01:43:01.796Z,0
2019-02-04T01:44:01.782Z,-0.07
2019-02-04T01:45:01.764Z,0.03
2019-02-04T01:46:01.731Z,-0.01
2019-02-04T01:47:01.712Z,0.02
2019-02-04T01:48:01.697Z,0
2019-02-04T01:49:01.997Z,0
2019-02-04T01:50:01.459Z,-0.04
2019-02-04T01:51:01.644Z,-0.04
2019-02-04T01:52:01.632Z,-0.03
2019-02-04T01:53:01.607Z,-0.05
2019-02-04T01:54:01.595Z,-0.01
2019-02-04T01:55:01.570Z,-0.05
2019-02-04T01:56:01.549Z,-0.03
2019-02-04T01:57:01.759Z,-0.01
2019-02-04T01:58:01.608Z,-0.05
2019-02-04T01:59:01.506Z,0.04
2019-02-04T02:00:01.487Z,0
2019-02-04T02:01:01.463Z,-0.07
2019-02-04T02:02:01.439Z,-0.15
2019-02-04T02:03:01.432Z,-0.01
2019-02-04T02:04:01.540Z,-0.16
2019-02-04T02:05:01.745Z,-0.03
2019-02-04T02:06:01.369Z,0.07
2019-02-04T02:07:01.466Z,-0.04
2019-02-04T02:08:01.463Z,-0.08
2019-02-04T02:09:01.320Z,0.02
2019-02-04T02:10:01.328Z,-0.04
2019-02-04T02:11:01.283Z,0
2019-02-04T02:12:01.613Z,-0.04
2019-02-04T02:13:01.249Z,0.02
2019-02-04T02:14:01.233Z,-0.11
2019-02-04T02:15:01.206Z,-0.14
2019-02-04T02:16:01.191Z,-0.1
2019-02-04T02:17:01.177Z,-0.08
2019-02-04T02:18:01.266Z,-0.08
2019-02-04T02:19:01.144Z,-0.1
2019-02-04T02:20:01.287Z,-0.15
2019-02-04T02:21:01.103Z,-0.19
2019-02-04T02:22:01.088Z,-0.11
2019-02-04T02:23:01.067Z,-0.14
2019-02-04T02:24:01.046Z,-0.1
2019-02-04T02:25:01.031Z,-0.15
2019-02-04T02:26:01.015Z,-0.19
2019-02-04T02:27:01.000Z,-0.15
2019-02-04T02:28:01.171Z,-0.25
2019-02-04T02:29:01.232Z,-0.21
2019-02-04T02:30:00.939Z,-0.21
2019-02-04T02:31:00.937Z,-0.22
2019-02-04T02:32:00.706Z,-0.23
2019-02-04T02:33:00.890Z,-0.28
2019-02-04T02:34:00.866Z,-0.31
2019-02-04T02:35:00.855Z,-0.21
2019-02-04T02:36:01.265Z,-0.31
2019-02-04T02:37:00.814Z,-0.23
2019-02-04T02:38:00.806Z,-0.28
2019-02-04T02:39:00.781Z,-0.33
2019-02-04T02:40:00.760Z,-0.22
2019-02-04T02:41:00.738Z,-0.26
2019-02-04T02:42:00.727Z,-0.22
2019-02-04T02:43:00.736Z,-0.33
2019-02-04T02:44:01.258Z,-0.22
2019-02-04T02:45:00.695Z,-0.28
2019-02-04T02:46:00.649Z,-0.29
2019-02-04T02:47:00.633Z,-0.34
2019-02-04T02:48:00.617Z,-0.31
2019-02-04T02:49:00.598Z,-0.22
2019-02-04T02:50:00.585Z,-0.19
2019-02-04T02:51:00.570Z,-0.31
2019-02-04T02:52:00.943Z,-0.37
2019-02-04T02:53:00.536Z,-0.29
2019-02-04T02:54:00.505Z,-0.31
2019-02-04T02:55:00.497Z,-0.33
2019-02-04T02:56:00.463Z,-0.42
2019-02-04T02:57:00.531Z,-0.43
2019-02-04T02:58:00.514Z,-0.37
2019-02-04T02:59:00.638Z,-0.39
2019-02-04T03:00:00.392Z,-0.29
2019-02-04T03:01:00.384Z,-0.29
2019-02-04T03:02:00.363Z,-0.37
2019-02-04T03:03:00.346Z,-0.31
2019-02-04T03:04:00.328Z,-0.4
2019-02-04T03:05:00.327Z,-0.44
2019-02-04T03:06:00.294Z,-0.44
2019-02-04T03:07:00.533Z,-0.43
2019-02-04T03:08:00.259Z,-0.33
2019-02-04T03:09:00.244Z,-0.34
2019-02-04T03:10:00.357Z,-0.23
2019-02-04T03:11:00.186Z,-0.31
2019-02-04T03:12:00.185Z,-0.22
2019-02-04T03:13:00.162Z,-0.16
2019-02-04T03:14:00.142Z,-0.16
2019-02-04T03:15:00.652Z,-0.19
2019-02-04T03:16:00.106Z,-0.15
2019-02-04T03:17:00.096Z,-0.16
2019-02-04T03:18:00.105Z,-0.19
2019-02-04T03:19:00.051Z,-0.19
2019-02-04T03:20:00.031Z,-0.19
2019-02-04T03:21:00.016Z,-0.16
2019-02-04T03:21:59.992Z,-0.16
2019-02-04T03:23:00.502Z,-0.19
2019-02-04T03:24:03.278Z,-0.16
2019-02-04T03:24:59.692Z,-0.16
2019-02-04T03:25:59.926Z,-0.15
2019-02-04T03:26:59.910Z,-0.15
2019-02-04T03:27:59.889Z,-0.18
2019-02-04T03:28:59.883Z,-0.15
2019-02-04T03:29:59.852Z,-0.22
2019-02-04T03:31:00.459Z,-0.21
2019-02-04T03:31:59.862Z,-0.21
2019-02-04T03:32:59.846Z,-0.18
2019-02-04T03:33:59.773Z,-0.16
2019-02-04T03:34:59.756Z,-0.21
2019-02-04T03:35:59.755Z,-0.18
2019-02-04T03:36:59.717Z,-0.21
2019-02-04T03:37:59.471Z,-0.18
2019-02-04T03:39:00.306Z,-0.18
2019-02-04T03:39:59.667Z,-0.18
2019-02-04T03:40:59.657Z,-0.16
2019-02-04T03:41:59.628Z,-0.14
2019-02-04T03:42:59.621Z,-0.15
2019-02-04T03:44:02.071Z,-0.15
2019-02-04T03:44:59.573Z,-0.1
2019-02-04T03:45:59.563Z,-0.1
2019-02-04T03:47:00.203Z,-0.04
2019-02-04T03:48:12.036Z,0.11
2019-02-04T03:48:59.509Z,0.18
2019-02-04T03:49:59.481Z,0.2
2019-02-04T03:50:59.465Z,0.21
2019-02-04T03:51:59.451Z,0.28
2019-02-04T03:52:59.429Z,0.36
2019-02-04T03:53:59.426Z,0.42
2019-02-04T03:55:01.120Z,0.44
2019-02-04T03:55:59.376Z,0.51
2019-02-04T03:56:59.371Z,0.53
2019-02-04T03:57:59.342Z,0.58
2019-02-04T03:58:59.315Z,0.6
2019-02-04T04:00:01.903Z,0.75
2019-02-04T04:00:59.401Z,0.79
2019-02-04T04:01:59.271Z,0.73
2019-02-04T04:02:59.749Z,0.75
2019-02-04T04:03:59.226Z,0.86
2019-02-04T04:04:59.217Z,0.79
2019-02-04T04:05:59.196Z,0.79
2019-02-04T04:06:59.265Z,0.88
2019-02-04T04:07:59.275Z,0.87
2019-02-04T04:08:59.144Z,0.86
2019-02-04T04:09:59.117Z,0.8
2019-02-04T04:10:59.411Z,0.91
2019-02-04T04:11:59.084Z,0.87
2019-02-04T04:12:59.074Z,0.91
2019-02-04T04:13:59.052Z,0.94
2019-02-04T04:14:59.032Z,0.94
2019-02-04T04:15:59.014Z,0.98
2019-02-04T04:16:59.000Z,1.04
2019-02-04T04:17:58.981Z,0.98
2019-02-04T04:18:59.277Z,0.98
2019-02-04T04:19:58.953Z,1.11
2019-02-04T04:20:59.013Z,1.18
2019-02-04T04:21:58.909Z,1.23
2019-02-04T04:22:58.895Z,1.27
2019-02-04T04:23:58.875Z,1.32
2019-02-04T04:24:59.155Z,1.33
2019-02-04T04:25:59.091Z,1.44
2019-02-04T04:26:58.834Z,1.48
2019-02-04T04:27:58.811Z,1.44
2019-02-04T04:28:58.812Z,1.51
2019-02-04T04:29:58.783Z,1.42
2019-02-04T04:30:58.760Z,1.6
2019-02-04T04:31:58.856Z,1.6
2019-02-04T04:32:58.721Z,1.66
2019-02-04T04:33:58.982Z,1.69
2019-02-04T04:34:58.686Z,1.7
2019-02-04T04:35:58.667Z,1.72
2019-02-04T04:36:58.655Z,1.81
2019-02-04T04:37:58.664Z,1.83
2019-02-04T04:38:58.618Z,1.79
2019-02-04T04:39:58.606Z,1.83
2019-02-04T04:40:58.590Z,1.9
2019-02-04T04:41:59.137Z,1.91
2019-02-04T04:42:58.550Z,1.9
2019-02-04T04:43:58.528Z,1.99
2019-02-04T04:44:58.512Z,2.03
2019-02-04T04:45:58.505Z,2.05
2019-02-04T04:46:58.480Z,2.12
2019-02-04T04:47:58.472Z,2.14
2019-02-04T04:49:00.515Z,2.16
2019-02-04T04:49:59.015Z,2.23
2019-02-04T04:50:58.429Z,2.2
2019-02-04T04:51:58.394Z,2.36
2019-02-04T04:52:58.395Z,2.41
2019-02-04T04:53:58.376Z,2.42
2019-02-04T04:54:58.364Z,2.41
2019-02-04T04:55:58.376Z,2.41
2019-02-04T04:56:58.080Z,2.57
2019-02-04T04:57:58.740Z,2.59
2019-02-04T04:58:58.280Z,2.49
2019-02-04T04:59:58.270Z,2.57
2019-02-04T05:00:58.248Z,2.57
2019-02-04T05:01:58.232Z,2.57
2019-02-04T05:02:58.230Z,2.64
2019-02-04T05:03:58.202Z,2.67
2019-02-04T05:04:58.199Z,2.74
2019-02-04T05:05:58.507Z,2.81
2019-02-04T05:07:00.562Z,2.84
2019-02-04T05:07:58.136Z,2.82
2019-02-04T05:08:58.113Z,2.81
2019-02-04T05:09:58.105Z,2.78
2019-02-04T05:10:58.081Z,2.82
2019-02-04T05:11:58.059Z,2.81
2019-02-04T05:12:58.343Z,2.84
2019-02-04T05:13:58.141Z,2.82
2019-02-04T05:14:58.014Z,2.92
2019-02-04T05:15:57.997Z,2.87
2019-02-04T05:16:57.986Z,2.92
2019-02-04T05:17:57.990Z,2.84
2019-02-04T05:18:57.953Z,2.93
2019-02-04T05:19:57.941Z,2.87
2019-02-04T05:20:58.186Z,2.92
2019-02-04T05:21:57.906Z,3.03
2019-02-04T05:22:57.644Z,2.99
2019-02-04T05:23:57.964Z,3.02
2019-02-04T05:24:57.858Z,3.14
2019-02-04T05:25:57.831Z,3.03
2019-02-04T05:26:57.826Z,3.13
2019-02-04T05:27:57.837Z,3.05
2019-02-04T05:28:57.848Z,3.03
2019-02-04T05:29:58.113Z,3.15
2019-02-04T05:30:57.754Z,3.08
2019-02-04T05:31:57.736Z,3.08
2019-02-04T05:32:57.729Z,3.08
2019-02-04T05:33:57.712Z,3.03
2019-02-04T05:34:59.998Z,3.06
2019-02-04T05:35:57.671Z,3.06
2019-02-04T05:36:58.118Z,3.05
2019-02-04T05:37:57.650Z,3
2019-02-04T05:38:57.627Z,3.1
2019-02-04T05:39:57.610Z,2.95
2019-02-04T05:40:57.601Z,2.95
2019-02-04T05:41:57.576Z,3.1
2019-02-04T05:42:57.572Z,3.03
2019-02-04T05:43:57.552Z,2.96
2019-02-04T05:44:58.089Z,3.08
2019-02-04T05:45:57.509Z,2.96
2019-02-04T05:46:57.493Z,2.93
2019-02-04T05:47:57.588Z,2.96
2019-02-04T05:48:57.457Z,2.92
2019-02-04T05:49:57.455Z,2.95
2019-02-04T05:50:57.432Z,2.97
2019-02-04T05:51:59.938Z,2.9
2019-02-04T05:52:58.015Z,2.93
2019-02-04T05:53:57.385Z,2.96
2019-02-04T05:54:57.364Z,2.97
2019-02-04T05:55:57.355Z,3
2019-02-04T05:56:57.324Z,3.05
2019-02-04T05:57:57.328Z,3.06
2019-02-04T05:58:57.305Z,3.02
2019-02-04T05:59:57.288Z,2.93
2019-02-04T06:00:57.579Z,2.95
2019-02-04T06:01:57.248Z,3.02
2019-02-04T06:02:57.251Z,2.93
2019-02-04T06:03:57.222Z,2.99
2019-02-04T06:04:57.220Z,2.93
2019-02-04T06:05:57.195Z,2.95
2019-02-04T06:06:56.924Z,3
2019-02-04T06:07:57.150Z,2.96
2019-02-04T06:08:57.541Z,2.96
2019-02-04T06:09:57.121Z,2.96
2019-02-04T06:10:57.112Z,2.95
2019-02-04T06:11:57.093Z,2.96
2019-02-04T06:12:57.072Z,2.9
2019-02-04T06:13:57.054Z,2.87
2019-02-04T06:14:57.044Z,2.89
2019-02-04T06:15:57.221Z,2.87
2019-02-04T06:16:57.010Z,2.82
2019-02-04T06:17:57.085Z,2.82
2019-02-04T06:19:05.549Z,2.71
2019-02-04T06:19:56.967Z,2.71
2019-02-04T06:20:56.944Z,2.69
2019-02-04T06:21:56.928Z,2.57
2019-02-04T06:22:56.926Z,2.59
2019-02-04T06:23:57.117Z,2.59
2019-02-04T06:24:56.883Z,2.61
2019-02-04T06:25:56.878Z,2.57
2019-02-04T06:26:56.853Z,2.49
2019-02-04T06:27:56.838Z,2.53
2019-02-04T06:28:56.816Z,2.36
2019-02-04T06:29:56.796Z,2.39
2019-02-04T06:30:56.784Z,2.3
2019-02-04T06:31:57.208Z,2.31
2019-02-04T06:32:56.747Z,2.14
2019-02-04T06:33:56.731Z,2.14
2019-02-04T06:34:56.722Z,2.07
2019-02-04T06:35:56.697Z,2.09
2019-02-04T06:36:56.685Z,2.09
2019-02-04T06:37:56.664Z,1.95
2019-02-04T06:38:56.652Z,2
2019-02-04T06:39:57.134Z,1.93
2019-02-04T06:40:56.618Z,1.81
2019-02-04T06:41:56.595Z,1.79
2019-02-04T06:42:56.589Z,1.79
2019-02-04T06:43:56.560Z,1.73
2019-02-04T06:44:56.543Z,1.8
2019-02-04T06:45:56.539Z,1.7
2019-02-04T06:46:56.515Z,1.68
2019-02-04T06:47:57.178Z,1.59
2019-02-04T06:48:56.608Z,1.52
2019-02-04T06:49:56.489Z,1.52
2019-02-04T06:50:56.451Z,1.48
2019-02-04T06:51:56.427Z,1.45
2019-02-04T06:52:56.411Z,1.44
2019-02-04T06:53:56.394Z,1.45
2019-02-04T06:54:56.138Z,1.27
2019-02-04T06:55:56.453Z,1.29
2019-02-04T06:56:56.350Z,1.33
2019-02-04T06:57:56.334Z,1.34
2019-02-04T06:58:56.311Z,1.29
2019-02-04T06:59:56.291Z,1.26
2019-02-04T07:00:56.280Z,1.27
2019-02-04T07:01:57.740Z,1.24
2019-02-04T07:02:56.479Z,1.16
2019-02-04T07:03:56.231Z,1.16
2019-02-04T07:04:56.199Z,1.08
2019-02-04T07:05:56.191Z,1.15
2019-02-04T07:06:56.171Z,1.14
2019-02-04T07:07:56.154Z,1.11
2019-02-04T07:08:56.139Z,1.09
2019-02-04T07:09:56.133Z,1.12
2019-02-04T07:10:56.697Z,1.11
2019-02-04T07:11:56.124Z,1.14
2019-02-04T07:12:56.075Z,1.09
2019-02-04T07:13:56.055Z,1.27
2019-02-04T07:14:56.028Z,1.27
2019-02-04T07:15:56.021Z,1.3
2019-02-04T07:16:55.999Z,1.37
2019-02-04T07:18:01.423Z,1.44
2019-02-04T07:18:56.307Z,1.45
2019-02-04T07:19:55.944Z,1.58
2019-02-04T07:20:55.935Z,1.76
2019-02-04T07:21:55.919Z,1.76
2019-02-04T07:22:55.907Z,1.9
2019-02-04T07:23:55.872Z,2
2019-02-04T07:24:55.863Z,2.05
2019-02-04T07:25:56.035Z,2.12
2019-02-04T07:26:56.109Z,2.25
2019-02-04T07:27:55.581Z,2.38
2019-02-04T07:28:55.832Z,2.3
2019-02-04T07:29:55.786Z,2.41
2019-02-04T07:30:55.758Z,2.48
2019-02-04T07:31:55.741Z,2.54
2019-02-04T07:32:55.860Z,2.59
2019-02-04T07:33:56.283Z,2.61
2019-02-04T07:34:55.687Z,2.57
2019-02-04T07:35:55.677Z,2.71
2019-02-04T07:36:55.670Z,2.67
2019-02-04T07:37:55.742Z,2.67
2019-02-04T07:38:55.397Z,2.67
2019-02-04T07:39:55.614Z,2.75
2019-02-04T07:40:55.597Z,2.69
2019-02-04T07:41:56.131Z,2.72
2019-02-04T07:42:55.572Z,2.6
2019-02-04T07:43:55.564Z,2.67
2019-02-04T07:44:55.551Z,2.64
2019-02-04T07:45:55.523Z,2.63
2019-02-04T07:46:55.504Z,2.53
2019-02-04T07:47:55.492Z,2.59
2019-02-04T07:48:55.466Z,2.6
2019-02-04T07:49:55.766Z,2.53
2019-02-04T07:50:55.441Z,2.46
2019-02-04T07:51:55.434Z,2.54
2019-02-04T07:52:55.411Z,2.48
2019-02-04T07:53:55.395Z,2.43
2019-02-04T07:54:55.380Z,2.39
2019-02-04T07:55:55.369Z,2.35
2019-02-04T07:56:55.515Z,2.39
2019-02-04T07:57:57.239Z,2.41
2019-02-04T07:58:55.316Z,2.42
2019-02-04T07:59:55.305Z,2.39
2019-02-04T08:00:55.286Z,2.41
2019-02-04T08:01:55.255Z,2.46
2019-02-04T08:02:55.258Z,2.49
2019-02-04T08:03:55.276Z,2.53
2019-02-04T08:04:55.605Z,2.54
2019-02-04T08:05:55.210Z,2.63
2019-02-04T08:06:55.189Z,2.66
2019-02-04T08:07:55.169Z,2.69
2019-02-04T08:08:55.171Z,2.82
2019-02-04T08:09:55.150Z,2.9
2019-02-04T08:10:55.132Z,2.99
2019-02-04T08:11:55.104Z,3.13
2019-02-04T08:13:05.780Z,3.18
2019-02-04T08:13:55.077Z,3.11
2019-02-04T08:14:55.062Z,3.11
2019-02-04T08:15:55.065Z,3.05
2019-02-04T08:16:55.109Z,3.26
2019-02-04T08:17:55.030Z,3.06
2019-02-04T08:18:54.994Z,3.1
2019-02-04T08:19:54.979Z,3.15
2019-02-04T08:20:55.609Z,3.08
2019-02-04T08:21:54.953Z,3.03
2019-02-04T08:22:55.023Z,3.05
2019-02-04T08:23:54.915Z,3
2019-02-04T08:24:54.910Z,3.05
2019-02-04T08:25:54.890Z,2.93
2019-02-04T08:26:54.866Z,2.93
2019-02-04T08:27:54.874Z,2.96
2019-02-04T08:28:55.186Z,3.02
2019-02-04T08:29:54.820Z,2.96
2019-02-04T08:30:54.807Z,2.97
2019-02-04T08:31:54.804Z,2.99
2019-02-04T08:32:54.793Z,2.99
2019-02-04T08:33:54.785Z,2.97
2019-02-04T08:34:54.818Z,3.06
2019-02-04T08:35:55.084Z,3.03
2019-02-04T08:36:54.721Z,3.03
2019-02-04T08:37:54.709Z,3
2019-02-04T08:38:54.455Z,3.03
2019-02-04T08:39:54.674Z,3.03
2019-02-04T08:40:54.667Z,3.13
2019-02-04T08:41:54.646Z,3.1
2019-02-04T08:42:54.622Z,3.13
2019-02-04T08:43:56.146Z,3.2
2019-02-04T08:44:54.594Z,3.2
2019-02-04T08:45:54.581Z,3.23
2019-02-04T08:46:54.567Z,3.29
2019-02-04T08:47:54.552Z,3.23
2019-02-04T08:48:54.538Z,3.2
2019-02-04T08:50:04.456Z,3.29
2019-02-04T08:50:54.638Z,3.32
2019-02-04T08:51:54.482Z,3.21
2019-02-04T08:52:54.478Z,3.18
2019-02-04T08:53:54.457Z,3.23
2019-02-04T08:54:54.442Z,3.31
2019-02-04T08:55:54.429Z,3.39
2019-02-04T08:56:54.408Z,3.24
2019-02-04T08:57:54.406Z,3.33
2019-02-04T08:58:54.795Z,3.31
2019-02-04T08:59:54.389Z,3.42
2019-02-04T09:00:54.359Z,3.33
2019-02-04T09:01:54.344Z,3.36
2019-02-04T09:02:54.314Z,3.43
2019-02-04T09:03:54.059Z,3.47
2019-02-04T09:04:54.289Z,3.36
2019-02-04T09:05:54.371Z,3.48
2019-02-04T09:06:54.253Z,3.35
2019-02-04T09:07:54.238Z,3.51
2019-02-04T09:08:54.223Z,3.48
2019-02-04T09:09:54.215Z,3.5
2019-02-04T09:10:54.199Z,3.52
2019-02-04T09:11:54.174Z,3.45
2019-02-04T09:12:54.157Z,3.52
2019-02-04T09:13:54.484Z,3.52
2019-02-04T09:14:54.128Z,3.52
2019-02-04T09:15:54.113Z,3.54
2019-02-04T09:16:54.096Z,3.52
2019-02-04T09:17:54.095Z,3.58
2019-02-04T09:18:54.080Z,3.66
2019-02-04T09:19:54.053Z,3.6
2019-02-04T09:20:54.088Z,3.66
2019-02-04T09:21:54.378Z,3.65
2019-02-04T09:22:54.024Z,3.69
2019-02-04T09:23:53.991Z,3.62
2019-02-04T09:24:53.973Z,3.72
2019-02-04T09:25:53.954Z,3.72
2019-02-04T09:26:54.012Z,3.75
2019-02-04T09:27:53.937Z,3.83
2019-02-04T09:28:54.410Z,3.7
2019-02-04T09:29:53.901Z,3.84
2019-02-04T09:30:53.883Z,3.91
2019-02-04T09:31:53.868Z,3.9
2019-02-04T09:32:53.854Z,3.93
2019-02-04T09:33:53.846Z,3.86
2019-02-04T09:34:53.886Z,3.91
2019-02-04T09:35:53.818Z,3.87
2019-02-04T09:36:54.483Z,3.91
2019-02-04T09:37:53.785Z,3.87
2019-02-04T09:38:53.775Z,4
2019-02-04T09:39:53.755Z,3.94
2019-02-04T09:40:53.734Z,3.96
2019-02-04T09:41:53.709Z,3.91
2019-02-04T09:42:53.789Z,3.93
2019-02-04T09:43:53.911Z,3.96
2019-02-04T09:44:53.683Z,3.91
2019-02-04T09:45:53.665Z,4.06
2019-02-04T09:46:53.651Z,4.05
2019-02-04T09:47:53.651Z,4.05
2019-02-04T09:48:53.605Z,4.06
2019-02-04T09:49:53.599Z,4.08
2019-02-04T09:50:53.586Z,4.06
2019-02-04T09:51:54.127Z,4.06
2019-02-04T09:52:53.553Z,4.04
2019-02-04T09:53:53.611Z,4.08
2019-02-04T09:54:53.520Z,4.09
2019-02-04T09:55:53.510Z,4.11
2019-02-04T09:56:53.496Z,4.15
2019-02-04T09:57:53.584Z,4.05
2019-02-04T09:58:53.448Z,4.12
2019-02-04T09:59:54.300Z,4.12
2019-02-04T10:00:53.435Z,4.2
2019-02-04T10:01:53.414Z,4.12
2019-02-04T10:02:53.396Z,4.22
2019-02-04T10:03:53.375Z,4.26
2019-02-04T10:04:53.370Z,4.26
2019-02-04T10:05:53.345Z,4.3
2019-02-04T10:06:55.307Z,4.33
2019-02-04T10:07:54.056Z,4.33
2019-02-04T10:08:53.313Z,4.4
2019-02-04T10:09:53.302Z,4.4
2019-02-04T10:10:53.269Z,4.41
2019-02-04T10:11:53.259Z,4.41
2019-02-04T10:12:55.064Z,4.36
2019-02-04T10:13:53.232Z,4.4
2019-02-04T10:14:53.257Z,4.48
2019-02-04T10:15:53.587Z,4.5
2019-02-04T10:16:53.270Z,4.51
2019-02-04T10:17:53.287Z,4.54
2019-02-04T10:18:53.183Z,4.65
2019-02-04T10:19:53.251Z,4.66
2019-02-04T10:20:53.284Z,4.63
2019-02-04T10:21:53.981Z,4.77
2019-02-04T10:22:53.184Z,4.67
2019-02-04T10:23:53.484Z,4.67
2019-02-04T10:24:53.128Z,4.84
2019-02-04T10:25:53.145Z,4.69
2019-02-04T10:26:53.116Z,4.73
2019-02-04T10:27:53.089Z,4.67
2019-02-04T10:28:53.081Z,4.73
2019-02-04T10:29:53.048Z,4.73
2019-02-04T10:30:53.216Z,4.77
2019-02-04T10:31:52.987Z,4.8
2019-02-04T10:32:52.984Z,4.82
2019-02-04T10:33:52.963Z,4.97
2019-02-04T10:34:52.984Z,4.96
2019-02-04T10:35:53.028Z,4.92
2019-02-04T10:36:53.116Z,4.97
2019-02-04T10:37:52.955Z,5.09
2019-02-04T10:38:53.166Z,5.03
2019-02-04T10:39:52.935Z,5.15
2019-02-04T10:40:52.659Z,5.1
2019-02-04T10:41:52.905Z,5.13
2019-02-04T10:42:52.869Z,5.12
2019-02-04T10:43:52.863Z,5.18
2019-02-04T10:44:52.866Z,5.31
2019-02-04T10:45:52.828Z,5.22
2019-02-04T10:46:53.455Z,5.24
2019-02-04T10:47:52.968Z,5.28
2019-02-04T10:48:52.906Z,5.33
2019-02-04T10:49:52.778Z,5.38
2019-02-04T10:50:52.879Z,5.43
2019-02-04T10:51:52.751Z,5.45
2019-02-04T10:52:52.720Z,5.46
2019-02-04T10:53:52.749Z,5.45
2019-02-04T10:54:53.139Z,5.48
2019-02-04T10:55:52.704Z,5.54
2019-02-04T10:56:52.763Z,5.54
2019-02-04T10:57:52.729Z,5.6
2019-02-04T10:58:52.702Z,5.48
2019-02-04T10:59:52.625Z,5.57
2019-02-04T11:00:52.743Z,5.64
2019-02-04T11:01:52.835Z,5.61
2019-02-04T11:02:52.945Z,5.51
2019-02-04T11:03:52.555Z,5.56
2019-02-04T11:04:52.577Z,5.72
2019-02-04T11:05:52.293Z,5.51
2019-02-04T11:06:52.516Z,5.53
2019-02-04T11:07:52.513Z,5.64
2019-02-04T11:08:52.546Z,5.56
2019-02-04T11:09:52.945Z,5.65
2019-02-04T11:10:52.469Z,5.58
2019-02-04T11:11:52.442Z,5.67
2019-02-04T11:12:52.501Z,5.67
2019-02-04T11:13:52.452Z,5.75
2019-02-04T11:14:52.436Z,5.76
2019-02-04T11:15:52.607Z,5.74
2019-02-04T11:16:52.360Z,5.76
2019-02-04T11:17:53.046Z,5.75
2019-02-04T11:18:52.595Z,5.78
2019-02-04T11:19:52.388Z,5.81
2019-02-04T11:21:03.022Z,5.75
2019-02-04T11:21:52.383Z,5.76
2019-02-04T11:22:52.281Z,5.72
2019-02-04T11:23:52.368Z,5.65
2019-02-04T11:24:52.148Z,5.78
2019-02-04T11:25:52.689Z,5.78
2019-02-04T11:26:52.233Z,5.82
2019-02-04T11:27:52.266Z,5.85
2019-02-04T11:28:52.280Z,5.82
2019-02-04T11:29:52.189Z,5.85
2019-02-04T11:30:52.190Z,5.85
2019-02-04T11:31:51.943Z,5.89
2019-02-04T11:32:52.167Z,5.78
2019-02-04T11:33:52.487Z,5.89
2019-02-04T11:34:54.112Z,5.89
2019-02-04T11:35:52.156Z,5.93
2019-02-04T11:36:52.140Z,5.83
2019-02-04T11:37:52.076Z,5.83
2019-02-04T11:38:52.158Z,5.9
2019-02-04T11:39:52.224Z,5.96
2019-02-04T11:40:52.083Z,5.93
2019-02-04T11:41:52.359Z,5.96
2019-02-04T11:42:52.015Z,5.99
2019-02-04T11:43:52.060Z,5.96
2019-02-04T11:44:51.999Z,5.96
2019-02-04T11:45:54.852Z,6.04
2019-02-04T11:46:52.007Z,6.03
2019-02-04T11:47:51.997Z,6.04
2019-02-04T11:48:51.936Z,6.04
2019-02-04T11:49:52.155Z,6.06
2019-02-04T11:50:51.863Z,6.03
2019-02-04T11:51:51.848Z,6.06
2019-02-04T11:52:51.864Z,6.09
2019-02-04T11:53:51.812Z,6.11
2019-02-04T11:54:51.804Z,6.11
2019-02-04T11:55:51.789Z,6.12
2019-02-04T11:56:51.953Z,6.18
2019-02-04T11:57:51.763Z,6.17
2019-02-04T11:58:51.752Z,6.15
2019-02-04T11:59:51.734Z,6.14
2019-02-04T12:00:51.733Z,6.25
2019-02-04T12:01:51.727Z,6.15
2019-02-04T12:02:51.703Z,6.19
2019-02-04T12:03:51.690Z,6.15
2019-02-04T12:04:52.248Z,6.14
2019-02-04T12:05:51.656Z,6.14
2019-02-04T12:06:51.634Z,6.22
2019-02-04T12:07:51.631Z,6.19
2019-02-04T12:08:51.611Z,6.17
2019-02-04T12:09:51.602Z,6.15
2019-02-04T12:10:51.597Z,6.14
2019-02-04T12:11:51.571Z,6.19
2019-02-04T12:12:52.212Z,6.14
2019-02-04T12:13:51.550Z,6.18
2019-02-04T12:14:51.533Z,6.14
2019-02-04T12:15:51.514Z,6.17
2019-02-04T12:16:51.499Z,6.28
2019-02-04T12:17:51.496Z,6.17
2019-02-04T12:18:51.480Z,6.28
2019-02-04T12:19:51.615Z,6.25
2019-02-04T12:20:51.837Z,6.25
2019-02-04T12:21:51.446Z,6.18
2019-02-04T12:22:51.451Z,6.19
2019-02-04T12:23:51.416Z,6.27
2019-02-04T12:24:51.408Z,6.19
2019-02-04T12:25:51.383Z,6.12
2019-02-04T12:26:51.369Z,6.18
2019-02-04T12:27:51.675Z,6.22
2019-02-04T12:28:51.339Z,6.18
2019-02-04T12:29:51.336Z,6.22
2019-02-04T12:30:51.323Z,6.27
2019-02-04T12:31:51.310Z,6.17
2019-02-04T12:32:51.293Z,6.33
2019-02-04T12:33:51.289Z,6.33
2019-02-04T12:34:51.269Z,6.31
2019-02-04T12:35:51.776Z,6.38
2019-02-04T12:36:51.386Z,6.3
2019-02-04T12:37:51.225Z,6.4
2019-02-04T12:38:51.216Z,6.36
2019-02-04T12:39:51.210Z,6.33
2019-02-04T12:40:51.185Z,6.33
2019-02-04T12:41:53.223Z,6.44
2019-02-04T12:42:51.281Z,6.44
2019-02-04T12:43:51.424Z,6.46
2019-02-04T12:44:51.137Z,6.41
2019-02-04T12:45:51.127Z,6.41
2019-02-04T12:46:51.113Z,6.41
2019-02-04T12:47:51.097Z,6.44
2019-02-04T12:48:51.083Z,6.51
2019-02-04T12:49:51.065Z,6.41
2019-02-04T12:50:51.243Z,6.52
2019-02-04T12:51:51.046Z,6.49
2019-02-04T12:52:51.017Z,6.62
2019-02-04T12:53:51.012Z,6.55
2019-02-04T12:54:51.012Z,6.59
2019-02-04T12:55:50.995Z,6.71
2019-02-04T12:56:50.995Z,6.71
2019-02-04T12:57:50.959Z,6.69
2019-02-04T12:59:00.432Z,6.7
2019-02-04T12:59:50.956Z,6.67
2019-02-04T13:00:50.923Z,6.71
2019-02-04T13:01:50.918Z,6.73
2019-02-04T13:02:50.898Z,6.69
2019-02-04T13:03:50.885Z,6.76
2019-02-04T13:04:50.871Z,6.81
2019-02-04T13:05:50.852Z,6.84
2019-02-04T13:06:52.030Z,6.76
2019-02-04T13:07:50.830Z,6.74
2019-02-04T13:08:50.818Z,6.87
2019-02-04T13:09:50.807Z,6.79
2019-02-04T13:10:50.794Z,6.69
2019-02-04T13:11:50.795Z,6.79
2019-02-04T13:12:50.762Z,6.66
2019-02-04T13:13:50.755Z,6.71
2019-02-04T13:14:51.193Z,6.76
2019-02-04T13:15:50.727Z,6.74
2019-02-04T13:16:50.711Z,6.74